createdAt,value
2023-04-19T00:00:00.070Z,69.65
2023-04-19T00:01:00.117Z,70.15
2023-04-19T00:01:59.288Z,71.50
2023-04-19T00:02:59.371Z,73.43
2023-04-19T00:04:00.427Z,71.27
2023-04-19T00:05:00.646Z,72.21
2023-04-19T00:06:00.429Z,71.73
2023-04-19T00:07:00.526Z,72.47
2023-04-19T00:08:00.565Z,71.17
2023-04-19T00:09:00.637Z,72.73
2023-04-19T00:09:59.717Z,71.19
2023-04-19T00:11:00.785Z,72.15
2023-04-19T00:12:00.853Z,69.40
2023-04-19T00:12:59.867Z,72.94
2023-04-19T00:14:00.945Z,69.82
2023-04-19T00:15:01.007Z,71.53
2023-04-19T00:16:01.078Z,70.92
2023-04-19T00:17:00.173Z,72.53
2023-04-19T00:18:00.242Z,72.61
2023-04-19T00:19:01.253Z,71.85
2023-04-19T00:20:01.321Z,69.85
2023-04-19T00:21:00.362Z,70.92
2023-04-19T00:22:00.467Z,73.70
2023-04-19T00:23:00.515Z,71.67
2023-04-19T00:24:01.553Z,71.21
2023-04-19T00:25:01.654Z,71.48
2023-04-19T00:26:00.668Z,72.81
2023-04-19T00:27:00.732Z,72.40
2023-04-19T00:28:01.919Z,69.80
2023-04-19T00:29:01.946Z,73.48
2023-04-19T00:30:01.915Z,69.39
2023-04-19T00:31:02.033Z,71.07
2023-04-19T00:32:01.050Z,72.25
2023-04-19T00:33:02.241Z,71.53
2023-04-19T00:34:02.194Z,69.87
2023-04-19T00:35:01.264Z,71.07
2023-04-19T00:36:02.304Z,72.90
2023-04-19T00:37:01.370Z,69.12
2023-04-19T00:38:02.423Z,70.86
2023-04-19T00:39:01.497Z,72.43
2023-04-19T00:40:02.608Z,68.74
2023-04-19T00:41:01.618Z,70.35
2023-04-19T00:42:02.687Z,71.23
2023-04-19T00:43:02.747Z,69.64
2023-04-19T00:44:01.892Z,70.99
2023-04-19T00:45:01.891Z,68.65
2023-04-19T00:46:03.053Z,71.62
2023-04-19T00:47:03.005Z,71.16
2023-04-19T00:48:03.109Z,69.44
2023-04-19T00:49:03.127Z,68.70
2023-04-19T00:50:03.195Z,68.86
2023-04-19T00:51:02.268Z,68.22
2023-04-19T00:52:03.317Z,70.49
2023-04-19T00:53:03.388Z,67.49
2023-04-19T00:54:03.435Z,71.12
2023-04-19T00:55:03.504Z,68.65
2023-04-19T00:56:02.582Z,68.98
2023-04-19T00:57:02.632Z,69.04
2023-04-19T00:58:03.704Z,68.96
2023-04-19T00:59:03.750Z,68.51
2023-04-19T01:00:03.955Z,67.35
2023-04-19T01:01:02.897Z,68.26
2023-04-19T01:02:03.183Z,67.74
2023-04-19T01:03:04.275Z,66.62
2023-04-19T01:04:04.188Z,69.47
2023-04-19T01:05:04.125Z,68.48
2023-04-19T01:06:04.214Z,68.95
2023-04-19T01:07:03.232Z,67.27
2023-04-19T01:08:04.309Z,66.23
2023-04-19T01:09:04.361Z,66.70
2023-04-19T01:10:04.445Z,67.24
2023-04-19T01:11:03.487Z,67.61
2023-04-19T01:12:03.571Z,64.99
2023-04-19T01:13:03.620Z,66.42
2023-04-19T01:14:04.672Z,65.09
2023-04-19T01:15:04.753Z,67.21
2023-04-19T01:16:04.901Z,65.19
2023-04-19T01:17:03.871Z,69.09
2023-04-19T01:18:04.955Z,65.13
2023-04-19T01:19:04.988Z,67.87
2023-04-19T01:20:04.082Z,68.60
2023-04-19T01:21:05.125Z,65.70
2023-04-19T01:22:04.182Z,67.31
2023-04-19T01:23:05.249Z,63.49
2023-04-19T01:24:05.295Z,64.39
2023-04-19T01:25:04.396Z,64.66
2023-04-19T01:26:04.443Z,64.26
2023-04-19T01:27:05.472Z,64.18
2023-04-19T01:28:05.493Z,65.72
2023-04-19T01:29:05.608Z,65.00
2023-04-19T01:30:04.663Z,64.59
2023-04-19T01:31:04.750Z,61.98
2023-04-19T01:32:04.809Z,61.87
2023-04-19T01:33:05.881Z,61.17
2023-04-19T01:34:04.905Z,63.01
2023-04-19T01:35:06.033Z,61.37
2023-04-19T01:36:05.003Z,64.38
2023-04-19T01:37:06.050Z,63.59
2023-04-19T01:38:06.134Z,61.63
2023-04-19T01:39:05.172Z,63.29
2023-04-19T01:40:05.247Z,61.75
2023-04-19T01:41:06.359Z,63.37
2023-04-19T01:42:06.351Z,64.90
2023-04-19T01:43:05.416Z,63.93
2023-04-19T01:44:06.494Z,63.18
2023-04-19T01:45:06.579Z,62.71
2023-04-19T01:46:05.616Z,62.76
2023-04-19T01:47:06.772Z,63.19
2023-04-19T01:48:05.772Z,62.82
2023-04-19T01:49:06.797Z,63.82
2023-04-19T01:50:05.850Z,63.89
2023-04-19T01:51:05.943Z,63.39
2023-04-19T01:52:06.970Z,61.58
2023-04-19T01:53:07.026Z,60.13
2023-04-19T01:54:07.096Z,61.76
2023-04-19T01:55:07.154Z,63.31
2023-04-19T01:56:07.417Z,62.31
2023-04-19T01:57:07.302Z,60.63
2023-04-19T01:58:07.381Z,61.25
2023-04-19T01:59:07.419Z,62.14
2023-04-19T02:00:07.476Z,61.89
2023-04-19T02:01:07.568Z,59.00
2023-04-19T02:02:07.754Z,61.19
2023-04-19T02:03:07.855Z,59.75
2023-04-19T02:04:06.776Z,58.41
2023-04-19T02:05:06.796Z,61.08
2023-04-19T02:06:06.860Z,61.34
2023-04-19T02:07:07.964Z,57.83
2023-04-19T02:08:07.988Z,60.04
2023-04-19T02:09:08.032Z,62.47
2023-04-19T02:10:07.103Z,59.69
2023-04-19T02:11:08.154Z,59.95
2023-04-19T02:12:07.211Z,61.92
2023-04-19T02:13:08.311Z,60.12
2023-04-19T02:14:08.388Z,60.64
2023-04-19T02:15:07.397Z,60.33
2023-04-19T02:16:08.481Z,60.49
2023-04-19T02:17:08.564Z,60.75
2023-04-19T02:18:08.601Z,58.89
2023-04-19T02:19:08.666Z,58.46
2023-04-19T02:20:08.734Z,57.87
2023-04-19T02:21:08.748Z,57.82
2023-04-19T02:22:08.799Z,58.32
2023-04-19T02:23:07.909Z,55.88
2023-04-19T02:24:08.926Z,57.47
2023-04-19T02:25:08.104Z,56.69
2023-04-19T02:26:09.042Z,54.10
2023-04-19T02:27:09.096Z,55.90
2023-04-19T02:28:08.168Z,54.50
2023-04-19T02:29:08.280Z,54.64
2023-04-19T02:30:09.292Z,54.44
2023-04-19T02:31:09.398Z,58.13
2023-04-19T02:32:09.560Z,56.19
2023-04-19T02:33:09.454Z,55.39
2023-04-19T02:34:09.508Z,53.92
2023-04-19T02:35:09.612Z,54.87
2023-04-19T02:36:09.637Z,54.35
2023-04-19T02:37:08.697Z,56.18
2023-04-19T02:38:09.719Z,54.78
2023-04-19T02:39:09.772Z,52.87
2023-04-19T02:40:09.327Z,53.47
2023-04-19T02:41:09.863Z,54.05
2023-04-19T02:42:08.899Z,53.13
2023-04-19T02:43:09.965Z,53.14
2023-04-19T02:44:10.191Z,51.53
2023-04-19T02:45:09.041Z,53.82
2023-04-19T02:46:09.153Z,51.53
2023-04-19T02:47:10.159Z,52.21
2023-04-19T02:48:10.233Z,51.13
2023-04-19T02:49:09.262Z,49.88
2023-04-19T02:50:10.287Z,52.45
2023-04-19T02:51:10.354Z,51.28
2023-04-19T02:52:09.409Z,51.33
2023-04-19T02:53:10.510Z,51.34
2023-04-19T02:54:10.502Z,50.98
2023-04-19T02:55:10.561Z,52.85
2023-04-19T02:56:09.585Z,51.13
2023-04-19T02:57:10.646Z,50.07
2023-04-19T02:58:09.695Z,49.99
2023-04-19T02:59:09.754Z,51.34
2023-04-19T03:00:10.806Z,50.31
2023-04-19T03:01:12.963Z,49.99
2023-04-19T03:02:09.872Z,52.27
2023-04-19T03:03:10.922Z,51.60
2023-04-19T03:04:10.932Z,50.98
2023-04-19T03:05:10.842Z,51.70
2023-04-19T03:06:10.840Z,52.28
2023-04-19T03:07:10.863Z,52.68
2023-04-19T03:08:10.821Z,48.10
2023-04-19T03:09:09.812Z,49.47
2023-04-19T03:10:09.790Z,50.45
2023-04-19T03:11:10.813Z,47.85
2023-04-19T03:12:10.795Z,49.27
2023-04-19T03:13:09.795Z,49.99
2023-04-19T03:14:09.773Z,49.80
2023-04-19T03:15:10.764Z,51.51
2023-04-19T03:16:10.801Z,49.10
2023-04-19T03:17:09.766Z,49.44
2023-04-19T03:18:10.741Z,50.70
2023-04-19T03:19:09.746Z,48.16
2023-04-19T03:20:10.902Z,48.50
2023-04-19T03:21:10.740Z,47.91
2023-04-19T03:22:10.725Z,48.91
2023-04-19T03:23:10.727Z,44.00
2023-04-19T03:24:10.696Z,48.33
2023-04-19T03:25:10.690Z,49.57
2023-04-19T03:26:09.676Z,52.61
2023-04-19T03:27:10.676Z,49.80
2023-04-19T03:28:09.652Z,50.09
2023-04-19T03:29:09.645Z,48.82
2023-04-19T03:30:10.647Z,45.07
2023-04-19T03:31:10.715Z,50.71
2023-04-19T03:32:10.621Z,50.18
2023-04-19T03:33:09.705Z,41.76
2023-04-19T03:34:10.693Z,44.99
2023-04-19T03:35:10.724Z,46.80
2023-04-19T03:36:10.771Z,49.05
2023-04-19T03:37:10.831Z,50.13
2023-04-19T03:38:10.840Z,48.85
2023-04-19T03:39:09.922Z,44.44
2023-04-19T03:40:09.937Z,49.22
2023-04-19T03:41:09.951Z,48.96
2023-04-19T03:42:10.007Z,51.19
2023-04-19T03:43:11.090Z,46.97
2023-04-19T03:44:11.078Z,50.45
2023-04-19T03:45:11.121Z,49.00
2023-04-19T03:46:11.222Z,49.77
2023-04-19T03:47:11.222Z,49.55
2023-04-19T03:48:10.288Z,48.04
2023-04-19T03:49:11.308Z,49.73
2023-04-19T03:50:10.331Z,51.72
2023-04-19T03:51:10.367Z,51.68
2023-04-19T03:52:11.466Z,47.47
2023-04-19T03:53:11.510Z,48.23
2023-04-19T03:54:11.500Z,49.53
2023-04-19T03:55:10.554Z,49.47
2023-04-19T03:56:11.567Z,49.93
2023-04-19T03:57:10.627Z,50.76
2023-04-19T03:58:11.670Z,51.43
2023-04-19T03:59:11.741Z,49.98
2023-04-19T04:00:11.741Z,50.37
2023-04-19T04:01:11.780Z,44.16
2023-04-19T04:02:11.941Z,50.27
2023-04-19T04:03:12.032Z,49.72
2023-04-19T04:04:12.047Z,49.84
2023-04-19T04:05:11.069Z,49.22
2023-04-19T04:06:11.948Z,49.48
2023-04-19T04:07:12.010Z,48.97
2023-04-19T04:08:12.029Z,50.81
2023-04-19T04:09:11.055Z,49.77
2023-04-19T04:10:12.101Z,51.99
2023-04-19T04:11:12.164Z,51.52
2023-04-19T04:12:12.169Z,51.12
2023-04-19T04:13:12.206Z,49.67
2023-04-19T04:14:12.242Z,51.98
2023-04-19T04:15:12.292Z,50.75
2023-04-19T04:16:12.338Z,49.45
2023-04-19T04:17:12.363Z,49.22
2023-04-19T04:18:12.393Z,50.16
2023-04-19T04:19:12.432Z,47.71
2023-04-19T04:20:12.442Z,48.82
2023-04-19T04:21:12.494Z,49.84
2023-04-19T04:22:12.546Z,46.42
2023-04-19T04:23:12.553Z,47.80
2023-04-19T04:24:11.590Z,48.69
2023-04-19T04:25:11.624Z,50.23
2023-04-19T04:26:11.654Z,45.67
2023-04-19T04:27:12.722Z,45.79
2023-04-19T04:28:11.723Z,47.32
2023-04-19T04:29:12.757Z,47.17
2023-04-19T04:30:12.822Z,46.23
2023-04-19T04:31:13.054Z,55.47
2023-04-19T04:32:12.948Z,55.64
2023-04-19T04:33:12.899Z,54.05
2023-04-19T04:34:11.941Z,50.41
2023-04-19T04:35:12.986Z,49.27
2023-04-19T04:36:12.084Z,49.66
2023-04-19T04:37:13.075Z,48.77
2023-04-19T04:38:23.541Z,49.57
2023-04-19T04:39:13.113Z,49.73
2023-04-19T04:40:12.121Z,49.72
2023-04-19T04:41:13.099Z,49.66
2023-04-19T04:42:13.142Z,47.36
2023-04-19T04:43:13.128Z,46.20
2023-04-19T04:44:13.114Z,46.80
2023-04-19T04:45:12.076Z,38.89
2023-04-19T04:46:13.091Z,42.13
2023-04-19T04:47:13.054Z,46.65
2023-04-19T04:48:13.147Z,44.51
2023-04-19T04:49:12.050Z,43.37
2023-04-19T04:50:13.043Z,46.84
2023-04-19T04:51:13.045Z,43.69
2023-04-19T04:52:12.078Z,42.61
2023-04-19T04:53:14.821Z,43.25
2023-04-19T04:54:13.290Z,43.97
2023-04-19T04:55:13.101Z,45.47
2023-04-19T04:56:13.090Z,41.89
2023-04-19T04:57:13.121Z,42.83
2023-04-19T04:58:13.090Z,38.64
2023-04-19T04:59:13.097Z,37.38
2023-04-19T05:00:13.116Z,39.79
2023-04-19T05:01:13.105Z,38.65
2023-04-19T05:02:12.084Z,41.07
2023-04-19T05:03:13.124Z,40.83
2023-04-19T05:04:13.175Z,41.69
2023-04-19T05:05:13.063Z,42.63
2023-04-19T05:06:13.046Z,40.03
2023-04-19T05:07:15.390Z,37.72
2023-04-19T05:08:11.998Z,37.92
2023-04-19T05:09:12.995Z,38.64
2023-04-19T05:10:11.986Z,39.89
2023-04-19T05:11:12.996Z,40.03
2023-04-19T05:12:12.060Z,40.97
2023-04-19T05:13:12.974Z,42.63
2023-04-19T05:14:13.234Z,43.71
2023-04-19T05:15:12.093Z,40.14
2023-04-19T05:16:12.034Z,38.85
2023-04-19T05:17:12.939Z,40.57
2023-04-19T05:18:12.943Z,40.43
2023-04-19T05:19:11.949Z,40.92
2023-04-19T05:20:12.950Z,39.98
2023-04-19T05:21:12.917Z,41.55
2023-04-19T05:22:12.926Z,40.82
2023-04-19T05:23:12.910Z,42.34
2023-04-19T05:24:12.895Z,42.57
2023-04-19T05:25:12.891Z,39.85
2023-04-19T05:26:12.947Z,39.93
2023-04-19T05:27:12.891Z,35.92
2023-04-19T05:28:11.866Z,41.20
2023-04-19T05:29:12.869Z,40.84
2023-04-19T05:30:12.906Z,39.67
2023-04-19T05:31:11.944Z,33.76
2023-04-19T05:32:12.852Z,38.40
2023-04-19T05:33:12.855Z,38.75
2023-04-19T05:34:13.059Z,41.56
2023-04-19T05:35:12.867Z,40.57
2023-04-19T05:36:11.827Z,39.29
2023-04-19T05:37:12.811Z,40.63
2023-04-19T05:38:12.884Z,42.10
2023-04-19T05:39:12.821Z,42.89
2023-04-19T05:40:12.900Z,45.89
2023-04-19T05:41:12.934Z,46.02
2023-04-19T05:42:13.020Z,46.76
2023-04-19T05:43:13.033Z,48.82
2023-04-19T05:44:12.051Z,47.42
2023-04-19T05:45:13.047Z,54.61
2023-04-19T05:46:13.111Z,53.39
2023-04-19T05:47:13.308Z,54.18
2023-04-19T05:48:12.131Z,56.83
2023-04-19T05:49:13.101Z,56.88
2023-04-19T05:50:13.177Z,57.18
2023-04-19T05:51:13.150Z,56.14
2023-04-19T05:52:13.281Z,66.99
2023-04-19T05:53:13.199Z,66.20
2023-04-19T05:54:12.245Z,67.43
2023-04-19T05:55:13.220Z,72.11
2023-04-19T05:56:13.224Z,73.79
2023-04-19T05:57:13.275Z,79.38
2023-04-19T05:58:12.338Z,79.99
2023-04-19T05:59:13.338Z,77.39
2023-04-19T06:00:13.328Z,83.46
2023-04-19T06:01:13.345Z,77.74
2023-04-19T06:02:13.915Z,85.37
2023-04-19T06:03:13.673Z,82.41
2023-04-19T06:04:12.782Z,82.35
2023-04-19T06:05:12.990Z,77.28
2023-04-19T06:06:13.557Z,84.86
2023-04-19T06:07:27.239Z,85.92
2023-04-19T06:08:13.510Z,86.17
2023-04-19T06:09:12.490Z,86.69
2023-04-19T06:10:13.558Z,86.45
2023-04-19T06:11:23.282Z,86.49
2023-04-19T06:12:13.936Z,86.27
2023-04-19T06:13:12.537Z,86.16
2023-04-19T06:14:12.479Z,86.09
2023-04-19T06:15:13.455Z,86.63
2023-04-19T06:16:13.451Z,84.23
2023-04-19T06:17:13.463Z,82.17
2023-04-19T06:18:19.149Z,82.07
2023-04-19T06:19:13.518Z,82.54
2023-04-19T06:20:13.439Z,83.59
2023-04-19T06:21:13.434Z,84.09
2023-04-19T06:22:13.445Z,84.88
2023-04-19T06:23:13.426Z,86.28
2023-04-19T06:24:13.651Z,85.59
2023-04-19T06:25:13.404Z,85.27
2023-04-19T06:26:13.395Z,84.32
2023-04-19T06:27:13.372Z,83.63
2023-04-19T06:28:12.396Z,80.64
2023-04-19T06:29:12.369Z,79.19
2023-04-19T06:30:15.343Z,79.08
2023-04-19T06:31:13.379Z,84.40
2023-04-19T06:32:13.333Z,88.94
2023-04-19T06:33:12.429Z,87.52
2023-04-19T06:34:13.279Z,85.98
2023-04-19T06:35:13.414Z,83.95
2023-04-19T06:36:13.358Z,83.37
2023-04-19T06:37:13.355Z,82.30
2023-04-19T06:38:13.343Z,81.16
2023-04-19T06:39:12.379Z,80.21
2023-04-19T06:40:12.474Z,80.84
2023-04-19T06:41:12.273Z,84.29
2023-04-19T06:42:12.275Z,86.00
2023-04-19T06:43:13.255Z,80.28
2023-04-19T06:44:13.346Z,83.47
2023-04-19T06:45:12.259Z,86.31
2023-04-19T06:46:13.293Z,84.16
2023-04-19T06:47:13.236Z,80.49
2023-04-19T06:48:13.525Z,86.70
2023-04-19T06:49:13.214Z,81.14
2023-04-19T06:50:12.282Z,81.35
2023-04-19T06:51:13.232Z,84.24
2023-04-19T06:52:13.201Z,95.01
2023-04-19T06:53:12.357Z,102.90
2023-04-19T06:54:13.171Z,125.43
2023-04-19T06:55:13.180Z,111.15
2023-04-19T06:56:13.197Z,92.42
2023-04-19T06:57:12.163Z,78.20
2023-04-19T06:58:13.304Z,101.65
2023-04-19T06:59:12.151Z,108.40
2023-04-19T07:00:12.231Z,112.68
2023-04-19T07:01:13.442Z,114.41
2023-04-19T07:02:13.259Z,117.16
2023-04-19T07:03:12.207Z,120.97
2023-04-19T07:04:13.421Z,122.12
2023-04-19T07:05:12.427Z,119.84
2023-04-19T07:06:12.101Z,122.33
2023-04-19T07:07:12.180Z,124.80
2023-04-19T07:08:13.167Z,121.55
2023-04-19T07:09:13.257Z,120.10
2023-04-19T07:10:13.266Z,119.74
2023-04-19T07:11:13.213Z,120.89
2023-04-19T07:12:13.253Z,120.85
2023-04-19T07:13:12.309Z,121.22
2023-04-19T07:14:13.443Z,119.96
2023-04-19T07:15:12.388Z,118.66
2023-04-19T07:16:12.455Z,115.36
2023-04-19T07:17:13.446Z,115.39
2023-04-19T07:18:13.530Z,113.39
2023-04-19T07:19:13.626Z,116.60
2023-04-19T07:20:12.596Z,112.65
2023-04-19T07:21:13.642Z,108.29
2023-04-19T07:22:14.306Z,104.39
2023-04-19T07:23:12.786Z,107.73
2023-04-19T07:24:13.975Z,104.97
2023-04-19T07:25:12.776Z,98.37
2023-04-19T07:26:12.794Z,98.53
2023-04-19T07:27:12.782Z,100.81
2023-04-19T07:28:13.812Z,103.05
2023-04-19T07:29:13.840Z,100.72
2023-04-19T07:30:13.901Z,99.40
2023-04-19T07:31:13.918Z,101.29
2023-04-19T07:32:12.952Z,98.74
2023-04-19T07:33:14.017Z,97.72
2023-04-19T07:34:12.953Z,96.06
2023-04-19T07:35:14.001Z,96.51
2023-04-19T07:36:14.031Z,99.68
2023-04-19T07:37:14.072Z,96.70
2023-04-19T07:38:14.259Z,93.67
2023-04-19T07:39:14.177Z,90.80
2023-04-19T07:40:14.218Z,98.37
2023-04-19T07:41:13.129Z,96.29
2023-04-19T07:42:13.179Z,94.10
2023-04-19T07:43:14.216Z,99.34
2023-04-19T07:44:13.586Z,90.62
2023-04-19T07:45:14.283Z,98.01
2023-04-19T07:46:13.271Z,96.69
2023-04-19T07:47:14.259Z,126.77
2023-04-19T07:48:13.357Z,134.85
2023-04-19T07:49:13.361Z,131.51
2023-04-19T07:50:14.418Z,134.50
2023-04-19T07:51:14.513Z,139.03
2023-04-19T07:52:14.500Z,157.51
2023-04-19T07:53:14.819Z,157.73
2023-04-19T07:54:13.789Z,159.78
2023-04-19T07:55:14.662Z,165.50
2023-04-19T07:56:13.661Z,159.92
2023-04-19T07:57:14.691Z,161.30
2023-04-19T07:58:14.731Z,150.56
2023-04-19T07:59:14.758Z,146.96
2023-04-19T08:00:14.764Z,147.76
2023-04-19T08:01:14.801Z,140.82
2023-04-19T08:02:13.984Z,143.15
2023-04-19T08:03:15.117Z,137.36
2023-04-19T08:04:15.064Z,138.24
2023-04-19T08:05:15.948Z,132.36
2023-04-19T08:06:13.870Z,133.82
2023-04-19T08:07:14.906Z,135.17
2023-04-19T08:08:14.937Z,124.52
2023-04-19T08:09:15.037Z,126.60
2023-04-19T08:10:13.979Z,128.79
2023-04-19T08:11:15.028Z,123.51
2023-04-19T08:12:23.070Z,124.06
2023-04-19T08:13:14.978Z,124.23
2023-04-19T08:15:36.160Z,127.27
2023-04-19T08:16:51.756Z,124.49
2023-04-19T08:17:25.725Z,124.69
2023-04-19T08:18:14.973Z,125.06
2023-04-19T08:19:13.929Z,127.23
2023-04-19T08:20:14.924Z,128.81
2023-04-19T08:21:13.912Z,131.14
2023-04-19T08:22:13.910Z,142.56
2023-04-19T08:23:21.331Z,146.50
2023-04-19T08:24:15.111Z,141.35
2023-04-19T08:25:13.904Z,139.47
2023-04-19T08:26:13.910Z,130.49
2023-04-19T08:27:15.177Z,135.40
2023-04-19T08:28:14.881Z,129.84
2023-04-19T08:29:13.873Z,134.80
2023-04-19T08:30:13.849Z,113.30
2023-04-19T08:31:14.851Z,115.52
2023-04-19T08:32:13.945Z,93.19
2023-04-19T08:33:15.013Z,103.71
2023-04-19T08:34:13.846Z,95.73
2023-04-19T08:35:13.869Z,126.72
2023-04-19T08:36:17.144Z,122.56
2023-04-19T08:37:14.807Z,116.96
2023-04-19T08:38:14.811Z,116.62
2023-04-19T08:39:24.715Z,88.17
2023-04-19T08:40:14.802Z,90.62
2023-04-19T08:41:13.791Z,117.88
2023-04-19T08:43:14.133Z,122.96
2023-04-19T08:45:44.944Z,25.00
2023-04-19T08:46:45.961Z,25.00
2023-04-19T08:47:58.565Z,25.00
2023-04-19T08:48:45.952Z,25.00
2023-04-19T08:49:47.524Z,25.00
2023-04-19T08:51:00.650Z,25.00
2023-04-19T08:51:46.104Z,25.00
2023-04-19T08:52:54.939Z,25.00
2023-04-19T08:53:46.095Z,25.00
2023-04-19T08:54:45.092Z,25.00
2023-04-19T08:56:03.544Z,25.00
2023-04-19T08:56:46.094Z,25.00
2023-04-19T08:57:46.134Z,25.00
2023-04-19T08:59:45.034Z,25.00
2023-04-19T09:00:46.038Z,25.00
2023-04-19T09:01:46.064Z,26.65
2023-04-19T09:02:47.491Z,26.08
2023-04-19T09:04:00.234Z,29.45
2023-04-19T09:04:46.188Z,30.20
2023-04-19T09:05:45.372Z,32.99
2023-04-19T09:06:45.038Z,32.63
2023-04-19T09:07:45.990Z,33.70
2023-04-19T09:08:45.987Z,28.39
2023-04-19T09:09:55.973Z,25.00
2023-04-19T09:10:46.032Z,25.30
2023-04-19T09:11:45.939Z,22.26
2023-04-19T09:12:45.945Z,21.37
2023-04-19T09:13:45.936Z,10.09
2023-04-19T09:14:59.831Z,10.91
2023-04-19T09:15:45.971Z,25.11
2023-04-19T09:16:45.912Z,13.57
2023-04-19T09:17:44.923Z,10.26
2023-04-19T09:18:56.259Z,6.23
2023-04-19T09:19:45.904Z,17.84
2023-04-19T09:20:45.884Z,5.32
2023-04-19T09:21:45.863Z,0.00
2023-04-19T09:22:45.876Z,0.00
2023-04-19T09:23:44.854Z,0.00
2023-04-19T09:25:22.729Z,19.11
2023-04-19T09:26:11.192Z,19.19
2023-04-19T09:26:45.828Z,19.57
2023-04-19T09:27:45.833Z,20.83
2023-04-19T09:28:44.829Z,17.55
2023-04-19T09:29:45.817Z,12.37
2023-04-19T09:30:58.286Z,5.55
2023-04-19T09:31:51.663Z,19.63
2023-04-19T09:32:45.916Z,19.58
2023-04-19T09:33:45.861Z,16.68
2023-04-19T09:34:44.784Z,20.65
2023-04-19T09:35:45.777Z,39.60
2023-04-19T09:36:46.628Z,45.62
2023-04-19T09:38:44.758Z,26.58
2023-04-19T09:39:45.764Z,13.69
2023-04-19T09:40:45.736Z,9.74
2023-04-19T09:41:45.723Z,11.55
2023-04-19T09:44:05.642Z,15.27
2023-04-19T09:45:20.935Z,23.27
2023-04-19T09:45:45.724Z,23.96
2023-04-19T09:46:45.778Z,0.00
2023-04-19T09:47:45.708Z,0.00
2023-04-19T09:48:46.174Z,0.00
2023-04-19T09:49:48.902Z,0.00
2023-04-19T09:50:53.999Z,7.25
2023-04-19T09:51:45.648Z,18.23
2023-04-19T09:52:45.663Z,8.85
2023-04-19T09:53:45.168Z,6.06
2023-04-19T09:54:45.668Z,4.80
2023-04-19T09:55:57.659Z,5.17
2023-04-19T09:56:45.626Z,8.22
2023-04-19T09:57:44.620Z,0.00
2023-04-19T09:58:51.148Z,0.00
2023-04-19T09:59:45.616Z,19.96
2023-04-19T10:00:49.906Z,14.78
2023-04-19T10:01:45.635Z,13.62
2023-04-19T10:02:45.764Z,2.46
2023-04-19T10:03:45.788Z,0.00
2023-04-19T10:05:44.623Z,0.00
2023-04-19T10:07:07.015Z,0.00
2023-04-19T10:07:45.641Z,0.00
2023-04-19T10:08:44.544Z,0.00
2023-04-19T10:09:52.996Z,0.00
2023-04-19T10:10:45.770Z,0.64
2023-04-19T10:11:47.919Z,0.00
2023-04-19T10:12:59.157Z,8.11
2023-04-19T10:13:45.533Z,17.61
2023-04-19T10:14:45.499Z,5.28
2023-04-19T10:15:51.193Z,6.25
2023-04-19T10:16:45.551Z,0.00
2023-04-19T10:17:45.488Z,0.00
2023-04-19T10:18:44.644Z,0.00
2023-04-19T10:19:45.459Z,0.00
2023-04-19T10:20:44.458Z,0.00
2023-04-19T10:21:44.462Z,0.00
2023-04-19T10:22:45.441Z,25.00
2023-04-19T10:23:44.451Z,25.04
2023-04-19T10:24:45.462Z,28.87
2023-04-19T10:25:45.446Z,32.92
2023-04-19T10:26:45.413Z,47.07
2023-04-19T10:27:47.449Z,37.46
2023-04-19T10:28:44.402Z,45.56
2023-04-19T10:29:44.395Z,46.43
2023-04-19T10:30:45.401Z,47.53
2023-04-19T10:31:45.428Z,41.63
2023-04-19T10:32:45.404Z,46.39
2023-04-19T10:33:45.373Z,67.43
2023-04-19T10:34:45.393Z,71.99
2023-04-19T10:35:44.383Z,72.19
2023-04-19T10:36:45.376Z,83.79
2023-04-19T10:37:44.324Z,98.62
2023-04-19T10:38:44.350Z,88.56
2023-04-19T10:39:45.322Z,90.33
2023-04-19T10:40:45.307Z,101.27
2023-04-19T10:41:45.328Z,96.70
2023-04-19T10:42:44.331Z,102.22
2023-04-19T10:43:44.678Z,114.60
2023-04-19T10:44:45.293Z,111.76
2023-04-19T10:45:44.342Z,113.01
2023-04-19T10:46:45.272Z,107.70
2023-04-19T10:47:45.290Z,117.64
2023-04-19T10:48:44.675Z,114.80
2023-04-19T10:49:44.287Z,116.30
2023-04-19T10:50:44.260Z,114.88
2023-04-19T10:51:45.232Z,126.89
2023-04-19T10:52:44.225Z,82.02
2023-04-19T10:53:45.678Z,100.80
2023-04-19T10:54:45.215Z,110.24
2023-04-19T10:55:44.237Z,107.61
2023-04-19T10:56:45.205Z,100.33
2023-04-19T10:57:44.200Z,93.07
2023-04-19T10:58:44.195Z,96.57
2023-04-19T10:59:44.191Z,99.57
2023-04-19T11:00:45.179Z,85.49
2023-04-19T11:01:45.311Z,90.10
2023-04-19T11:02:45.335Z,96.28
2023-04-19T11:03:45.556Z,91.72
2023-04-19T11:04:45.404Z,90.41
2023-04-19T11:05:45.362Z,102.26
2023-04-19T11:06:45.418Z,94.98
2023-04-19T11:07:45.460Z,91.36
2023-04-19T11:08:45.475Z,88.06
2023-04-19T11:09:44.515Z,75.99
2023-04-19T11:10:45.542Z,82.22
2023-04-19T11:11:44.558Z,72.85
2023-04-19T11:12:45.627Z,76.93
2023-04-19T11:13:45.616Z,75.88
2023-04-19T11:14:45.688Z,69.67
2023-04-19T11:15:45.713Z,77.14
2023-04-19T11:16:46.509Z,74.64
2023-04-19T11:17:44.756Z,62.71
2023-04-19T11:18:44.763Z,66.29
2023-04-19T11:19:44.807Z,56.23
2023-04-19T11:20:45.829Z,62.72
2023-04-19T11:21:44.846Z,73.34
2023-04-19T11:22:45.911Z,64.91
2023-04-19T11:23:45.940Z,61.78
2023-04-19T11:24:44.948Z,55.34
2023-04-19T11:25:44.974Z,62.44
2023-04-19T11:26:46.026Z,56.98
2023-04-19T11:27:45.046Z,64.01
2023-04-19T11:28:46.044Z,60.59
2023-04-19T11:29:46.076Z,63.15
2023-04-19T11:30:45.104Z,59.22
2023-04-19T11:31:46.203Z,52.76
2023-04-19T11:32:46.195Z,56.84
2023-04-19T11:33:45.249Z,53.20
2023-04-19T11:34:45.239Z,53.91
2023-04-19T11:35:45.290Z,67.35
2023-04-19T11:36:45.346Z,71.96
2023-04-19T11:37:46.375Z,74.76
2023-04-19T11:38:45.639Z,73.16
2023-04-19T11:39:45.464Z,74.71
2023-04-19T11:40:45.466Z,74.27
2023-04-19T11:41:45.495Z,83.32
2023-04-19T11:42:45.526Z,84.34
2023-04-19T11:43:46.556Z,89.70
2023-04-19T11:44:46.560Z,90.27
2023-04-19T11:45:46.593Z,96.67
2023-04-19T11:46:46.641Z,87.24
2023-04-19T11:47:45.666Z,77.12
2023-04-19T11:48:46.670Z,65.58
2023-04-19T11:49:46.677Z,83.78
2023-04-19T11:50:45.752Z,91.77
2023-04-19T11:51:46.722Z,95.35
2023-04-19T11:52:46.733Z,103.20
2023-04-19T11:53:45.762Z,125.67
2023-04-19T11:54:45.821Z,129.01
2023-04-19T11:55:45.868Z,141.75
2023-04-19T11:56:46.830Z,148.45
2023-04-19T11:57:45.838Z,148.83
2023-04-19T11:58:46.864Z,146.52
2023-04-19T11:59:46.872Z,148.50
2023-04-19T12:00:45.903Z,137.94
2023-04-19T12:01:46.912Z,143.29
2023-04-19T12:02:46.997Z,141.11
2023-04-19T12:03:47.170Z,161.26
2023-04-19T12:04:46.117Z,170.55
2023-04-19T12:05:46.138Z,169.62
2023-04-19T12:06:47.042Z,184.25
2023-04-19T12:07:46.076Z,170.94
2023-04-19T12:08:47.153Z,169.78
2023-04-19T12:09:46.169Z,175.32
2023-04-19T12:10:47.216Z,177.71
2023-04-19T12:11:47.215Z,194.30
2023-04-19T12:12:46.243Z,185.11
2023-04-19T12:13:47.261Z,200.73
2023-04-19T12:14:47.354Z,192.84
2023-04-19T12:15:46.343Z,203.99
2023-04-19T12:16:46.369Z,198.27
2023-04-19T12:17:56.660Z,199.43
2023-04-19T12:18:47.370Z,199.91
2023-04-19T12:19:47.401Z,201.18
2023-04-19T12:20:47.380Z,203.90
2023-04-19T12:21:47.390Z,205.91
2023-04-19T12:22:46.350Z,205.15
2023-04-19T12:23:46.328Z,218.73
2023-04-19T12:24:47.372Z,221.01
2023-04-19T12:25:46.391Z,211.49
2023-04-19T12:26:47.320Z,213.93
2023-04-19T12:27:47.418Z,211.14
2023-04-19T12:28:46.301Z,212.22
2023-04-19T12:29:47.291Z,191.32
2023-04-19T12:30:46.291Z,194.59
2023-04-19T12:31:46.280Z,207.03
2023-04-19T12:32:47.283Z,201.95
2023-04-19T12:33:46.248Z,200.10
2023-04-19T12:34:47.260Z,188.24
2023-04-19T12:35:47.216Z,216.16
2023-04-19T12:36:47.265Z,213.33
2023-04-19T12:37:46.226Z,215.78
2023-04-19T12:38:46.205Z,214.83
2023-04-19T12:39:47.209Z,220.50
2023-04-19T12:40:47.191Z,220.46
2023-04-19T12:41:47.195Z,195.28
2023-04-19T12:42:47.224Z,162.82
2023-04-19T12:43:47.163Z,172.68
2023-04-19T12:44:46.201Z,172.72
2023-04-19T12:45:46.197Z,194.03
2023-04-19T12:46:47.150Z,204.88
2023-04-19T12:47:47.223Z,198.60
2023-04-19T12:48:46.131Z,207.65
2023-04-19T12:49:47.143Z,204.18
2023-04-19T12:50:46.137Z,197.46
2023-04-19T12:51:47.123Z,187.48
2023-04-19T12:52:47.113Z,186.79
2023-04-19T12:53:46.095Z,185.69
2023-04-19T12:54:46.084Z,195.08
2023-04-19T12:55:46.087Z,183.98